createdAt,value
2019-02-23T00:00:55.188Z,33.43
2019-02-23T00:05:57.084Z,35.20
2019-02-23T00:10:58.635Z,33.73
2019-02-23T00:16:00.228Z,38.87
2019-02-23T00:21:01.765Z,37.23
2019-02-23T00:26:03.286Z,40.23
2019-02-23T00:31:05.205Z,38.10
2019-02-23T00:36:06.765Z,38.13
2019-02-23T00:41:08.744Z,35.60
2019-02-23T00:46:10.621Z,35.03
2019-02-23T00:51:12.237Z,36.47
2019-02-23T00:56:13.770Z,36.17
2019-02-23T01:01:15.337Z,34.17
2019-02-23T01:06:16.847Z,33.57
2019-02-23T01:11:18.412Z,37.33
2019-02-23T01:16:19.950Z,35.63
2019-02-23T01:21:21.468Z,35.50
2019-02-23T01:26:23.027Z,33.20
2019-02-23T01:31:24.566Z,34.40
2019-02-23T01:36:26.137Z,35.00
2019-02-23T01:41:28.101Z,35.37
2019-02-23T01:46:29.670Z,36.30
2019-02-23T01:51:31.266Z,37.57
2019-02-23T01:56:32.798Z,36.23
2019-02-23T02:01:34.357Z,35.23
2019-02-23T02:06:35.911Z,34.87
2019-02-23T02:11:37.808Z,36.70
2019-02-23T02:16:39.396Z,36.33
2019-02-23T02:21:41.260Z,35.77
2019-02-23T02:26:42.839Z,39.10
2019-02-23T02:31:44.709Z,37.67
2019-02-23T02:36:46.268Z,35.37
2019-02-23T02:41:47.900Z,37.07
2019-02-23T02:46:49.846Z,34.93
2019-02-23T02:51:51.355Z,38.73
2019-02-23T02:56:52.975Z,36.90
2019-02-23T03:01:54.859Z,35.30
2019-02-23T03:06:56.409Z,33.33
2019-02-23T03:11:58.336Z,33.10
2019-02-23T03:16:59.899Z,33.67
2019-02-23T03:22:01.490Z,33.10
2019-02-23T03:27:03.512Z,33.27
2019-02-23T03:32:05.029Z,33.57
2019-02-23T03:37:06.640Z,33.70
2019-02-23T03:42:08.245Z,32.23
2019-02-23T03:47:09.906Z,33.20
2019-02-23T03:52:11.561Z,34.40
2019-02-23T03:57:13.186Z,35.33
2019-02-23T04:02:15.548Z,34.17
2019-02-23T04:07:17.426Z,35.43
2019-02-23T04:12:18.970Z,33.03
2019-02-23T04:17:20.523Z,34.07
2019-02-23T04:22:22.412Z,35.50
2019-02-23T04:27:24.442Z,35.70
2019-02-23T04:32:25.968Z,31.10
2019-02-23T04:37:27.525Z,33.77
2019-02-23T04:42:29.184Z,31.90
2019-02-23T04:47:31.140Z,29.90
2019-02-23T04:52:32.706Z,30.30
2019-02-23T04:57:34.334Z,30.20
2019-02-23T05:02:35.866Z,31.17
2019-02-23T05:07:37.420Z,32.90
2019-02-23T05:12:38.958Z,31.17
2019-02-23T05:17:40.911Z,32.87
2019-02-23T05:22:42.456Z,30.53
2019-02-23T05:27:44.106Z,33.20
2019-02-23T05:32:45.640Z,30.53
2019-02-23T05:37:47.223Z,31.90
2019-02-23T05:43:00.100Z,29.87
2019-02-23T05:47:52.351Z,30.60
2019-02-23T05:52:53.966Z,30.50
2019-02-23T05:57:55.611Z,30.37
2019-02-23T06:02:57.237Z,28.87
2019-02-23T06:07:59.461Z,32.40
2019-02-23T06:13:01.021Z,32.33
2019-02-23T06:18:02.673Z,32.37
2019-02-23T06:23:04.467Z,28.93
2019-02-23T06:28:05.984Z,29.93
2019-02-23T06:33:07.620Z,27.73
2019-02-23T06:38:09.297Z,30.27
2019-02-23T06:43:10.825Z,29.10
2019-02-23T06:48:12.425Z,28.10
2019-02-23T06:53:14.435Z,28.80
2019-02-23T06:58:16.533Z,37.78
2019-02-23T07:03:18.200Z,31.50
2019-02-23T07:08:19.816Z,29.43
2019-02-23T07:13:21.379Z,29.07
2019-02-23T07:18:23.076Z,27.90
2019-02-23T07:23:24.654Z,28.03
2019-02-23T07:28:26.228Z,28.23
2019-02-23T07:33:32.989Z,25.80
2019-02-23T07:38:31.319Z,28.93
2019-02-23T07:43:32.993Z,29.63
2019-02-23T07:48:34.531Z,29.30
2019-02-23T07:53:36.197Z,27.77
2019-02-23T07:58:38.185Z,28.03
2019-02-23T08:03:39.760Z,25.80
2019-02-23T08:08:41.461Z,26.13
2019-02-23T08:13:43.197Z,25.90
2019-02-23T08:18:44.755Z,26.23
2019-02-23T08:23:46.329Z,26.50
2019-02-23T08:28:47.888Z,27.07
2019-02-23T08:33:49.447Z,28.43
2019-02-23T08:38:51.038Z,26.93
2019-02-23T08:43:52.674Z,26.87
2019-02-23T08:48:54.344Z,29.93
2019-02-23T08:53:55.901Z,29.20
2019-02-23T08:58:57.551Z,31.63
2019-02-23T09:03:59.085Z,30.47
2019-02-23T09:09:00.653Z,31.87
2019-02-23T09:14:02.136Z,30.27
2019-02-23T09:19:03.862Z,28.17
2019-02-23T09:24:05.501Z,25.93
2019-02-23T09:29:07.177Z,26.23
2019-02-23T09:34:08.889Z,27.57
2019-02-23T09:39:10.456Z,22.77
2019-02-23T09:44:12.195Z,23.23
2019-02-23T09:49:14.190Z,22.13
2019-02-23T09:54:15.734Z,22.47
2019-02-23T09:59:17.300Z,23.07
2019-02-23T10:04:19.260Z,23.03
2019-02-23T10:09:21.007Z,19.17
2019-02-23T10:14:22.645Z,22.10
2019-02-23T10:19:24.242Z,20.67
2019-02-23T10:24:25.808Z,19.70
2019-02-23T10:29:27.407Z,20.43
2019-02-23T10:34:29.012Z,19.40
2019-02-23T10:39:30.952Z,20.33
2019-02-23T10:44:32.482Z,19.23
2019-02-23T10:49:35.108Z,18.80
2019-02-23T10:54:36.674Z,18.80
2019-02-23T10:59:38.268Z,19.37
2019-02-23T11:04:39.819Z,20.43
2019-02-23T11:09:41.411Z,19.03
2019-02-23T11:14:42.897Z,19.37
2019-02-23T11:19:44.758Z,20.07
2019-02-23T11:24:46.570Z,20.30
2019-02-23T11:29:48.204Z,19.97
2019-02-23T11:34:50.351Z,20.33
2019-02-23T11:39:52.321Z,22.07
2019-02-23T11:44:53.892Z,19.33
2019-02-23T11:49:55.581Z,19.77
2019-02-23T11:54:57.444Z,21.00
2019-02-23T11:59:59.126Z,20.07
2019-02-23T12:05:00.704Z,21.13
2019-02-23T12:10:02.397Z,21.00
2019-02-23T12:15:04.252Z,19.97
2019-02-23T12:20:05.990Z,20.50
2019-02-23T12:25:07.620Z,20.70
2019-02-23T12:30:09.242Z,20.87
2019-02-23T12:35:11.281Z,20.93
2019-02-23T12:40:12.971Z,21.60
2019-02-23T12:45:14.899Z,23.53
2019-02-23T12:50:16.620Z,20.97
2019-02-23T12:55:18.534Z,24.40
2019-02-23T13:00:20.366Z,22.73
2019-02-23T13:05:21.904Z,23.00
2019-02-23T13:10:23.546Z,23.93
2019-02-23T13:15:36.590Z,23.97
2019-02-23T13:21:23.007Z,22.50
2019-02-23T13:26:55.771Z,22.67
2019-02-23T13:32:39.919Z,23.30
2019-02-23T13:38:10.276Z,21.97
2019-02-23T13:43:43.021Z,21.73
2019-02-23T13:49:17.726Z,22.27
2019-02-23T13:55:04.152Z,22.83
2019-02-23T14:00:53.547Z,21.03
2019-02-23T14:06:21.610Z,21.13
2019-02-23T14:11:52.671Z,21.87
2019-02-23T14:17:35.631Z,19.67
2019-02-23T14:23:30.961Z,19.30
2019-02-23T14:29:06.090Z,17.90
2019-02-23T14:35:03.128Z,17.33
2019-02-23T14:40:58.428Z,18.30
2019-02-23T14:46:37.543Z,17.83
2019-02-23T14:52:14.692Z,17.20
2019-02-23T14:57:39.548Z,16.70
2019-02-23T15:03:24.059Z,16.90
2019-02-23T15:09:00.696Z,16.40
2019-02-23T15:14:33.987Z,17.47
2019-02-23T15:20:07.071Z,16.47
2019-02-23T15:25:59.043Z,17.07
2019-02-23T15:31:29.144Z,15.90
2019-02-23T15:37:01.028Z,17.37
2019-02-23T15:42:44.596Z,17.70
2019-02-23T15:48:14.928Z,17.90
2019-02-23T15:53:17.383Z,15.97
2019-02-23T15:58:18.946Z,16.17
2019-02-23T16:03:20.521Z,18.40
2019-02-23T16:08:22.076Z,18.03
2019-02-23T16:13:23.657Z,17.13
2019-02-23T16:18:25.239Z,16.20
2019-02-23T16:23:36.750Z,17.57
2019-02-23T16:28:30.372Z,16.90
2019-02-23T16:33:32.139Z,16.83
2019-02-23T16:38:34.305Z,17.53
2019-02-23T16:43:35.892Z,17.50
2019-02-23T16:48:37.443Z,17.50
2019-02-23T16:53:39.067Z,17.47
2019-02-23T16:58:40.714Z,17.50
2019-02-23T17:03:42.577Z,18.50
2019-02-23T17:08:44.203Z,17.00
2019-02-23T17:13:46.126Z,16.77
2019-02-23T17:18:47.850Z,17.63
2019-02-23T17:23:49.509Z,18.97
2019-02-23T17:28:51.689Z,17.70
2019-02-23T17:33:53.423Z,16.33
2019-02-23T17:38:55.103Z,17.63
2019-02-23T17:43:57.666Z,15.70
2019-02-23T17:48:59.716Z,16.90
2019-02-23T17:54:01.674Z,16.97
2019-02-23T17:59:03.883Z,17.43
2019-02-23T18:04:05.657Z,17.47
2019-02-23T18:09:07.629Z,16.70
2019-02-23T18:14:09.287Z,15.47
2019-02-23T18:19:10.872Z,15.93
2019-02-23T18:24:14.446Z,15.57
2019-02-23T18:29:16.188Z,16.07
2019-02-23T18:34:17.886Z,14.93
2019-02-23T18:39:19.522Z,15.33
2019-02-23T18:44:21.167Z,14.93
2019-02-23T18:49:22.757Z,15.23
2019-02-23T18:54:24.445Z,14.90
2019-02-23T18:59:26.493Z,14.77
2019-02-23T19:04:28.729Z,15.67
2019-02-23T19:09:30.440Z,15.83
2019-02-23T19:14:32.357Z,15.70
2019-02-23T19:19:34.304Z,16.20
2019-02-23T19:24:36.253Z,16.73
2019-02-23T19:29:37.871Z,15.80
2019-02-23T19:34:41.560Z,16.07
2019-02-23T19:39:43.247Z,16.17
2019-02-23T19:44:45.152Z,16.97
2019-02-23T19:49:48.049Z,16.50
2019-02-23T19:54:49.935Z,15.87
2019-02-23T19:59:51.684Z,16.33
2019-02-23T20:04:53.388Z,16.13
2019-02-23T20:09:54.922Z,15.93
2019-02-23T20:14:56.582Z,16.93
2019-02-23T20:19:58.178Z,15.67
2019-02-23T20:24:59.844Z,16.60
2019-02-23T20:30:01.939Z,17.77
2019-02-23T20:35:03.751Z,15.67
2019-02-23T20:40:05.824Z,16.27
2019-02-23T20:45:07.436Z,16.93
2019-02-23T20:50:09.238Z,15.90
2019-02-23T20:55:10.952Z,15.90
2019-02-23T21:00:12.710Z,16.63
2019-02-23T21:05:14.795Z,15.90
2019-02-23T21:10:16.408Z,17.27
2019-02-23T21:15:18.582Z,16.07
2019-02-23T21:20:20.281Z,16.67
2019-02-23T21:25:21.880Z,16.10
2019-02-23T21:30:23.779Z,16.40
2019-02-23T21:35:25.315Z,16.53
2019-02-23T21:40:27.032Z,15.10
2019-02-23T21:45:28.607Z,15.43
2019-02-23T21:50:30.418Z,15.87
2019-02-23T21:55:32.130Z,15.93
2019-02-23T22:00:34.287Z,16.33
2019-02-23T22:05:36.051Z,16.57
2019-02-23T22:10:37.574Z,15.80
2019-02-23T22:15:39.660Z,16.07
2019-02-23T22:20:41.240Z,16.33
2019-02-23T22:25:42.919Z,17.07
2019-02-23T22:30:44.454Z,16.73
2019-02-23T22:35:46.288Z,17.30
2019-02-23T22:40:48.115Z,17.17
2019-02-23T22:45:49.691Z,16.13
2019-02-23T22:50:51.676Z,15.50
2019-02-23T22:55:53.365Z,16.33
2019-02-23T23:00:55.336Z,19.03
2019-02-23T23:05:57.064Z,17.90
2019-02-23T23:10:58.624Z,17.30
2019-02-23T23:16:00.222Z,18.10
2019-02-23T23:21:01.791Z,17.80
2019-02-23T23:26:03.473Z,17.47
2019-02-23T23:31:05.422Z,16.93
2019-02-23T23:36:07.420Z,16.80
2019-02-23T23:41:09.005Z,16.63
2019-02-23T23:46:10.727Z,16.73
2019-02-23T23:51:12.562Z,15.80
2019-02-23T23:56:14.115Z,17.07
